Time,TemperatureF,DewpointF,PressureIn,WindDirection,WindDirectionDegrees,WindSpeedMPH,WindSpeedGustMPH,Humidity,HourlyPrecipIn,Conditions,Clouds,dailyrainin,SoftwareType,DateUTC
2013-01-10 00:03:00,53.0,35.0,-100.00,WSW,243,5.0,6.0,50,0.00,,,0.00,,2013-01-10 05:03:00,
2013-01-10 00:12:00,53.0,35.0,-100.00,WSW,243,5.0,6.0,50,0.00,,,0.00,,2013-01-10 05:12:00,
2013-01-10 00:23:00,52.0,31.0,-100.00,NW,313,6.0,7.0,46,0.00,,,0.00,,2013-01-10 05:23:00,
2013-01-10 00:33:00,52.0,31.0,-100.00,NW,313,6.0,7.0,46,0.00,,,0.00,,2013-01-10 05:33:00,
2013-01-10 00:43:00,49.0,31.0,-100.00,NW,319,8.0,12.0,49,0.00,,,0.00,,2013-01-10 05:43:00,
2013-01-10 00:53:00,49.0,31.0,-100.00,NW,319,8.0,12.0,49,0.00,,,0.00,,2013-01-10 05:53:00,
2013-01-10 01:02:00,49.0,31.0,-100.00,NW,319,8.0,12.0,49,0.00,,,0.00,,2013-01-10 06:02:00,
2013-01-10 01:22:00,45.0,31.0,-100.00,North,359,3.0,4.0,57,0.00,,,0.00,,2013-01-10 06:22:00,
2013-01-10 01:32:00,45.0,31.0,-100.00,North,359,3.0,4.0,57,0.00,,,0.00,,2013-01-10 06:32:00,
2013-01-10 01:42:00,47.0,29.0,-100.00,NW,322,7.0,7.0,48,0.00,,,0.00,,2013-01-10 06:42:00,
2013-01-10 01:52:00,47.0,29.0,-100.00,NW,322,7.0,7.0,48,0.00,,,0.00,,2013-01-10 06:52:00,
2013-01-10 02:02:00,47.0,28.0,-100.00,WSW,251,1.0,2.0,47,0.00,,,0.00,,2013-01-10 07:02:00,
2013-01-10 02:12:00,47.0,28.0,-100.00,WSW,251,1.0,2.0,47,0.00,,,0.00,,2013-01-10 07:12:00,
2013-01-10 02:22:00,45.0,28.0,-100.00,WSW,251,1.0,2.0,51,0.00,,,0.00,,2013-01-10 07:22:00,
2013-01-10 02:32:00,45.0,28.0,-100.00,WSW,251,1.0,2.0,51,0.00,,,0.00,,2013-01-10 07:32:00,
2013-01-10 02:42:00,47.0,28.0,-100.00,East,97,3.0,4.0,47,0.00,,,0.00,,2013-01-10 07:42:00,
2013-01-10 02:52:00,47.0,27.0,-100.00,East,92,4.0,4.0,45,0.00,,,0.00,,2013-01-10 07:52:00,
2013-01-10 03:02:00,47.0,27.0,-100.00,East,92,4.0,4.0,45,0.00,,,0.00,,2013-01-10 08:02:00,
2013-01-10 03:12:00,47.0,27.0,-100.00,East,92,4.0,4.0,45,0.00,,,0.00,,2013-01-10 08:12:00,
2013-01-10 03:22:00,46.0,27.0,-100.00,WNW,295,2.0,3.0,47,0.00,,,0.00,,2013-01-10 08:22:00,
2013-01-10 03:32:00,46.0,27.0,-100.00,WNW,295,2.0,3.0,47,0.00,,,0.00,,2013-01-10 08:32:00,
2013-01-10 03:42:00,44.0,28.0,-100.00,NNW,335,2.0,3.0,53,0.00,,,0.00,,2013-01-10 08:42:00,
2013-01-10 03:53:00,44.0,28.0,-100.00,NNW,335,2.0,3.0,53,0.00,,,0.00,,2013-01-10 08:53:00,
2013-01-10 04:02:00,45.0,27.0,-100.00,ESE,110,2.0,3.0,51,0.00,,,0.00,,2013-01-10 09:02:00,
2013-01-10 04:12:00,45.0,27.0,-100.00,ESE,110,2.0,3.0,51,0.00,,,0.00,,2013-01-10 09:12:00,
2013-01-10 04:22:00,44.0,28.0,-100.00,NW,316,2.0,3.0,53,0.00,,,0.00,,2013-01-10 09:22:00,
2013-01-10 04:32:00,44.0,28.0,-100.00,NW,316,2.0,3.0,53,0.00,,,0.00,,2013-01-10 09:32:00,
2013-01-10 04:42:00,44.0,28.0,-100.00,NW,316,2.0,3.0,53,0.00,,,0.00,,2013-01-10 09:42:00,
2013-01-10 04:53:00,42.0,29.0,-100.00,WNW,292,2.0,3.0,59,0.00,,,0.00,,2013-01-10 09:53:00,
2013-01-10 05:03:00,42.0,29.0,-100.00,WNW,292,2.0,3.0,59,0.00,,,0.00,,2013-01-10 10:03:00,
2013-01-10 05:12:00,42.0,29.0,-100.00,WNW,292,2.0,3.0,59,0.00,,,0.00,,2013-01-10 10:12:00,
2013-01-10 05:22:00,44.0,30.0,-100.00,SW,236,1.0,2.0,57,0.00,,,0.00,,2013-01-10 10:22:00,
2013-01-10 05:32:00,42.0,29.0,-100.00,NNW,342,4.0,6.0,60,0.00,,,0.00,,2013-01-10 10:32:00,
2013-01-10 05:42:00,42.0,29.0,-100.00,NNW,342,4.0,6.0,60,0.00,,,0.00,,2013-01-10 10:42:00,
2013-01-10 05:53:00,42.0,29.0,-100.00,NNW,342,4.0,6.0,60,0.00,,,0.00,,2013-01-10 10:53:00,
2013-01-10 06:03:00,39.0,30.0,-100.00,SE,131,2.0,3.0,70,0.00,,,0.00,,2013-01-10 11:03:00,
2013-01-10 06:12:00,43.0,30.0,-100.00,NE,47,2.0,3.0,62,0.00,,,0.00,,2013-01-10 11:12:00,
2013-01-10 06:22:00,43.0,30.0,-100.00,NE,47,2.0,3.0,62,0.00,,,0.00,,2013-01-10 11:22:00,
2013-01-10 06:33:00,39.0,29.0,-100.00,NE,51,2.0,4.0,67,0.00,,,0.00,,2013-01-10 11:33:00,
2013-01-10 06:43:00,39.0,29.0,-100.00,NE,51,2.0,4.0,67,0.00,,,0.00,,2013-01-10 11:43:00,
2013-01-10 06:53:00,39.0,29.0,-100.00,NE,51,2.0,4.0,67,0.00,,,0.00,,2013-01-10 11:53:00,
2013-01-10 07:03:00,39.0,29.0,-100.00,NE,51,2.0,4.0,67,0.00,,,0.00,,2013-01-10 12:03:00,
2013-01-10 07:22:00,37.0,29.0,-100.00,West,281,1.0,2.0,74,0.00,,,0.00,,2013-01-10 12:22:00,
2013-01-10 07:33:00,37.0,29.0,-100.00,West,281,1.0,2.0,74,0.00,,,0.00,,2013-01-10 12:33:00,
2013-01-10 07:43:00,35.0,29.0,-100.00,North,349,2.0,2.0,78,0.00,,,0.00,,2013-01-10 12:43:00,
2013-01-10 07:53:00,35.0,29.0,-100.00,North,349,2.0,2.0,78,0.00,,,0.00,,2013-01-10 12:53:00,
2013-01-10 08:02:00,39.0,30.0,-100.00,NE,44,2.0,3.0,69,0.00,,,0.00,,2013-01-10 13:02:00,
2013-01-10 08:12:00,39.0,30.0,-100.00,NE,44,2.0,3.0,69,0.00,,,0.00,,2013-01-10 13:12:00,
2013-01-10 08:22:00,38.0,30.0,-100.00,South,184,0.0,2.0,73,0.00,,,0.00,,2013-01-10 13:22:00,
2013-01-10 08:32:00,36.0,30.0,-100.00,North,0,1.0,2.0,77,0.00,,,0.00,,2013-01-10 13:32:00,
2013-01-10 08:42:00,36.0,30.0,-100.00,North,0,1.0,2.0,77,0.00,,,0.00,,2013-01-10 13:42:00,
2013-01-10 08:53:00,36.0,30.0,-100.00,North,0,1.0,2.0,77,0.00,,,0.00,,2013-01-10 13:53:00,
2013-01-10 09:02:00,37.0,31.0,-100.00,North,6,1.0,2.0,77,0.00,,,0.00,,2013-01-10 14:02:00,
2013-01-10 09:12:00,37.0,31.0,-100.00,North,6,1.0,2.0,77,0.00,,,0.00,,2013-01-10 14:12:00,
2013-01-10 09:22:00,37.0,31.0,-100.00,North,6,1.0,2.0,77,0.00,,,0.00,,2013-01-10 14:22:00,
2013-01-10 09:43:00,41.0,32.0,-100.00,NNW,343,1.0,3.0,70,0.00,,,0.00,,2013-01-10 14:43:00,
2013-01-10 09:53:00,41.0,32.0,-100.00,NNW,343,1.0,3.0,70,0.00,,,0.00,,2013-01-10 14:53:00,
2013-01-10 10:03:00,43.0,33.0,-100.00,NW,325,1.0,2.0,67,0.00,,,0.00,,2013-01-10 15:03:00,
2013-01-10 10:12:00,43.0,33.0,-100.00,NW,325,1.0,2.0,67,0.00,,,0.00,,2013-01-10 15:12:00,
2013-01-10 10:23:00,44.0,33.0,-100.00,North,360,2.0,2.0,65,0.00,,,0.00,,2013-01-10 15:23:00,
2013-01-10 10:33:00,44.0,33.0,-100.00,North,360,2.0,2.0,65,0.00,,,0.00,,2013-01-10 15:33:00,
2013-01-10 10:43:00,45.0,33.0,-100.00,ENE,58,4.0,6.0,61,0.00,,,0.00,,2013-01-10 15:43:00,
2013-01-10 10:53:00,45.0,33.0,-100.00,ENE,58,4.0,6.0,61,0.00,,,0.00,,2013-01-10 15:53:00,
2013-01-10 11:03:00,46.0,33.0,-100.00,NE,51,5.0,7.0,61,0.00,,,0.00,,2013-01-10 16:03:00,
2013-01-10 11:13:00,46.0,33.0,-100.00,NE,51,5.0,7.0,61,0.00,,,0.00,,2013-01-10 16:13:00,
2013-01-10 11:23:00,47.0,33.0,-100.00,NE,41,5.0,6.0,56,0.00,,,0.00,,2013-01-10 16:23:00,
2013-01-10 11:33:00,49.0,34.0,-100.00,NE,42,4.0,6.0,57,0.00,,,0.00,,2013-01-10 16:33:00,
2013-01-10 11:43:00,49.0,34.0,-100.00,NE,42,4.0,6.0,57,0.00,,,0.00,,2013-01-10 16:43:00,
2013-01-10 11:53:00,49.0,34.0,-100.00,NE,42,4.0,6.0,57,0.00,,,0.00,,2013-01-10 16:53:00,
2013-01-10 12:03:00,49.0,33.0,-100.00,NE,40,4.0,7.0,52,0.00,,,0.00,,2013-01-10 17:03:00,
2013-01-10 12:12:00,49.0,33.0,-100.00,NE,40,4.0,7.0,52,0.00,,,0.00,,2013-01-10 17:12:00,
2013-01-10 12:23:00,51.0,34.0,-100.00,ENE,66,3.0,6.0,53,0.00,,,0.00,,2013-01-10 17:23:00,
2013-01-10 12:33:00,51.0,34.0,-100.00,ENE,66,3.0,6.0,53,0.00,,,0.00,,2013-01-10 17:33:00,
2013-01-10 12:43:00,53.0,33.0,-100.00,ENE,64,2.0,3.0,48,0.00,,,0.00,,2013-01-10 17:43:00,
2013-01-10 12:53:00,53.0,33.0,-100.00,ENE,64,2.0,3.0,48,0.00,,,0.00,,2013-01-10 17:53:00,
2013-01-10 13:03:00,54.0,31.0,-100.00,South,176,2.0,2.0,41,0.00,,,0.00,,2013-01-10 18:03:00,
2013-01-10 13:12:00,54.0,31.0,-100.00,South,176,2.0,2.0,41,0.00,,,0.00,,2013-01-10 18:12:00,
2013-01-10 13:23:00,53.0,31.0,-100.00,ESE,114,1.0,3.0,43,0.00,,,0.00,,2013-01-10 18:23:00,
2013-01-10 13:33:00,53.0,31.0,-100.00,ESE,114,1.0,3.0,43,0.00,,,0.00,,2013-01-10 18:33:00,
2013-01-10 13:43:00,54.0,32.0,-100.00,North,10,3.0,5.0,43,0.00,,,0.00,,2013-01-10 18:43:00,
2013-01-10 13:53:00,54.0,32.0,-100.00,North,10,3.0,5.0,43,0.00,,,0.00,,2013-01-10 18:53:00,
2013-01-10 14:03:00,54.0,32.0,-100.00,North,10,3.0,5.0,43,0.00,,,0.00,,2013-01-10 19:03:00,
2013-01-10 14:13:00,55.0,32.0,-100.00,East,83,1.0,3.0,42,0.00,,,0.00,,2013-01-10 19:13:00,
2013-01-10 14:23:00,54.0,32.0,-100.00,East,100,2.0,3.0,42,0.00,,,0.00,,2013-01-10 19:23:00,
2013-01-10 14:33:00,54.0,32.0,-100.00,East,100,2.0,3.0,42,0.00,,,0.00,,2013-01-10 19:33:00,
2013-01-10 14:43:00,54.0,32.0,-100.00,ENE,62,3.0,4.0,43,0.00,,,0.00,,2013-01-10 19:43:00,
2013-01-10 14:53:00,54.0,32.0,-100.00,ENE,62,3.0,4.0,43,0.00,,,0.00,,2013-01-10 19:53:00,
2013-01-10 15:03:00,54.0,34.0,-100.00,ENE,62,2.0,3.0,46,0.00,,,0.00,,2013-01-10 20:03:00,
2013-01-10 15:13:00,54.0,34.0,-100.00,ENE,62,2.0,3.0,46,0.00,,,0.00,,2013-01-10 20:13:00,
2013-01-10 15:24:00,54.0,34.0,-100.00,ENE,62,2.0,3.0,46,0.00,,,0.00,,2013-01-10 20:24:00,
2013-01-10 15:43:00,54.0,33.0,-100.00,ENE,61,3.0,4.0,45,0.00,,,0.00,,2013-01-10 20:43:00,
2013-01-10 15:53:00,54.0,33.0,-100.00,ENE,61,3.0,4.0,45,0.00,,,0.00,,2013-01-10 20:53:00,
2013-01-10 16:04:00,54.0,33.0,-100.00,NE,56,2.0,4.0,45,0.00,,,0.00,,2013-01-10 21:04:00,
2013-01-10 16:13:00,54.0,33.0,-100.00,NE,56,2.0,4.0,45,0.00,,,0.00,,2013-01-10 21:13:00,
2013-01-10 16:23:00,54.0,33.0,-100.00,ENE,61,2.0,3.0,45,0.00,,,0.00,,2013-01-10 21:23:00,
2013-01-10 16:33:00,54.0,33.0,-100.00,ENE,61,2.0,3.0,45,0.00,,,0.00,,2013-01-10 21:33:00,
2013-01-10 16:43:00,53.0,34.0,-100.00,ENE,66,2.0,3.0,48,0.00,,,0.00,,2013-01-10 21:43:00,
2013-01-10 16:53:00,53.0,34.0,-100.00,ENE,66,2.0,3.0,48,0.00,,,0.00,,2013-01-10 21:53:00,
2013-01-10 17:04:00,53.0,32.0,-100.00,ENE,68,2.0,3.0,44,0.00,,,0.00,,2013-01-10 22:04:00,
2013-01-10 17:13:00,53.0,32.0,-100.00,ENE,68,2.0,3.0,44,0.00,,,0.00,,2013-01-10 22:13:00,
2013-01-10 17:27:00,53.0,32.0,-100.00,ENE,68,1.0,2.0,46,0.00,,,0.00,,2013-01-10 22:27:00,
2013-01-10 17:34:00,53.0,32.0,-100.00,ENE,68,1.0,2.0,46,0.00,,,0.00,,2013-01-10 22:34:00,
2013-01-10 17:44:00,52.0,32.0,-100.00,ENE,59,1.0,2.0,46,0.00,,,0.00,,2013-01-10 22:44:00,
2013-01-10 18:03:00,51.0,32.0,-100.00,NE,34,2.0,2.0,48,0.00,,,0.00,,2013-01-10 23:03:00,
2013-01-10 18:13:00,51.0,32.0,-100.00,NE,34,2.0,2.0,48,0.00,,,0.00,,2013-01-10 23:13:00,
2013-01-10 18:23:00,51.0,32.0,-100.00,NE,34,2.0,2.0,48,0.00,,,0.00,,2013-01-10 23:23:00,
2013-01-10 18:43:00,50.0,32.0,-100.00,East,95,2.0,2.0,48,0.00,,,0.00,,2013-01-10 23:43:00,
2013-01-10 18:53:00,50.0,32.0,-100.00,East,95,2.0,2.0,48,0.00,,,0.00,,2013-01-10 23:53:00,
2013-01-10 19:03:00,48.0,33.0,-100.00,WNW,285,0.0,0.0,55,0.00,,,0.00,,2013-01-11 00:03:00,
2013-01-10 19:13:00,48.0,33.0,-100.00,WNW,285,0.0,0.0,55,0.00,,,0.00,,2013-01-11 00:13:00,
2013-01-10 19:23:00,48.0,33.0,-100.00,SW,220,1.0,2.0,55,0.00,,,0.00,,2013-01-11 00:23:00,
2013-01-10 19:33:00,48.0,33.0,-100.00,SW,220,1.0,2.0,55,0.00,,,0.00,,2013-01-11 00:33:00,
2013-01-10 19:43:00,47.0,31.0,-100.00,SSW,192,2.0,2.0,53,0.00,,,0.00,,2013-01-11 00:43:00,
2013-01-10 19:53:00,47.0,31.0,-100.00,SSW,192,2.0,2.0,53,0.00,,,0.00,,2013-01-11 00:53:00,
2013-01-10 20:03:00,45.0,33.0,-100.00,SSW,199,1.0,2.0,62,0.00,,,0.00,,2013-01-11 01:03:00,
2013-01-10 20:13:00,45.0,33.0,-100.00,SSW,199,1.0,2.0,62,0.00,,,0.00,,2013-01-11 01:13:00,
2013-01-10 20:23:00,44.0,33.0,-100.00,SSW,210,2.0,3.0,63,0.00,,,0.00,,2013-01-11 01:23:00,
2013-01-10 20:34:00,44.0,33.0,-100.00,SSW,210,2.0,3.0,63,0.00,,,0.00,,2013-01-11 01:34:00,
2013-01-10 20:43:00,48.0,29.0,-100.00,South,191,2.0,3.0,48,0.00,,,0.00,,2013-01-11 01:43:00,
2013-01-10 20:53:00,48.0,29.0,-100.00,South,191,2.0,3.0,48,0.00,,,0.00,,2013-01-11 01:53:00,
2013-01-10 21:03:00,47.0,30.0,-100.00,South,182,3.0,4.0,50,0.00,,,0.00,,2013-01-11 02:03:00,
2013-01-10 21:13:00,47.0,30.0,-100.00,South,182,3.0,4.0,50,0.00,,,0.00,,2013-01-11 02:13:00,
2013-01-10 21:23:00,46.0,30.0,-100.00,SSE,165,2.0,3.0,54,0.00,,,0.00,,2013-01-11 02:23:00,
2013-01-10 21:33:00,46.0,30.0,-100.00,SSE,165,2.0,3.0,54,0.00,,,0.00,,2013-01-11 02:33:00,
2013-01-10 21:43:00,47.0,29.0,-100.00,SSW,208,1.0,2.0,50,0.00,,,0.00,,2013-01-11 02:43:00,
2013-01-10 21:54:00,47.0,29.0,-100.00,SSW,208,1.0,2.0,50,0.00,,,0.00,,2013-01-11 02:54:00,
2013-01-10 22:03:00,46.0,29.0,-100.00,South,175,2.0,2.0,52,0.00,,,0.00,,2013-01-11 03:03:00,
2013-01-10 22:13:00,46.0,29.0,-100.00,South,175,2.0,2.0,52,0.00,,,0.00,,2013-01-11 03:13:00,
2013-01-10 22:23:00,43.0,30.0,-100.00,South,191,0.0,1.0,60,0.00,,,0.00,,2013-01-11 03:23:00,
2013-01-10 22:33:00,43.0,30.0,-100.00,South,191,0.0,1.0,60,0.00,,,0.00,,2013-01-11 03:33:00,
2013-01-10 22:43:00,41.0,30.0,-100.00,North,6,1.0,1.0,63,0.00,,,0.00,,2013-01-11 03:43:00,
2013-01-10 22:53:00,41.0,30.0,-100.00,North,6,1.0,1.0,63,0.00,,,0.00,,2013-01-11 03:53:00,
2013-01-10 23:02:00,41.0,30.0,-100.00,North,6,1.0,1.0,63,0.00,,,0.00,,2013-01-11 04:02:00,
2013-01-10 23:23:00,41.0,29.0,-100.00,WSW,254,0.0,2.0,64,0.00,,,0.00,,2013-01-11 04:23:00,
2013-01-10 23:33:00,41.0,29.0,-100.00,WSW,254,0.0,2.0,64,0.00,,,0.00,,2013-01-11 04:33:00,
2013-01-10 23:43:00,41.0,30.0,-100.00,SSW,193,2.0,2.0,64,0.00,,,0.00,,2013-01-11 04:43:00,
2013-01-10 23:52:00,41.0,30.0,-100.00,SSW,193,2.0,2.0,64,0.00,,,0.00,,2013-01-11 04:52:00,